Tajima — 3FNU6 — position and weather

sailwx.info

Track history (hours):
 
Tides and Currents Weather Stations Pressure Air Temp Water Temp Dewpoint Dewpoint Depression Visibility Wind Speed Wind Dir Waves Ship Positions

Tajima

Last reported at 2018-Jun-02 20:13 UTC. Time now 2018-Aug-14 13:46 UTC.
Position N 23°53' W 016°34'.
Warning: this ship's position is months out of date.

Length 333 m; beam 60 m.

Type: Cargo ship. MMSI: 351120000.

Date/timePositionNaut miles runAvg speedWind from/ knotsBaromVisibWave heightAir tempDewpointWater temp
2018-Jun-02 20:13N 23°53' W 016°34'211.9
2018-Jun-02 20:00N 23°55' W 016°33'24011.8
2018-Jun-01 23:38N 27°45' W 015°15'211.9
2018-Jun-01 23:29N 27°47' W 015°15'611.8
2018-Jun-01 23:00N 27°52' W 015°15'611.6
2018-Jun-01 22:30N 27°58' W 015°16'510.6
2018-Jun-01 22:00N 28°03' W 015°18'510.8
2018-Jun-01 21:30N 28°06' W 015°23'1 2.7
2018-Jun-01 21:01N 28°07' W 015°24'0 0.1
2018-Jun-01 20:31N 28°07' W 015°24'0 0.0
2018-Jun-01 20:01N 28°07' W 015°24'0 0.0
2018-Jun-01 19:22N 28°07' W 015°24'0 0.0
2018-Jun-01 18:51N 28°07' W 015°24'0 0.0
2018-Jun-01 18:21N 28°07' W 015°24'0 0.0
2018-Jun-01 17:52N 28°07' W 015°24'0 0.0
2018-Jun-01 17:25N 28°07' W 015°24'0 0.0
2018-Jun-01 16:52N 28°07' W 015°24'0 0.0
2018-Jun-01 16:25N 28°07' W 015°24'0 0.0
2018-Jun-01 15:55N 28°07' W 015°24'0 0.0
2018-Jun-01 15:22N 28°07' W 015°24'0 0.0
2018-Jun-01 14:58N 28°07' W 015°24'0 0.0
2018-Jun-01 14:28N 28°07' W 015°24'0 0.0
2018-Jun-01 13:58N 28°07' W 015°24'0 0.0
2018-Jun-01 13:28N 28°07' W 015°24'0 0.0
2018-Jun-01 12:58N 28°07' W 015°24'0 0.0
2018-Jun-01 12:27N 28°07' W 015°24'0 0.0
2018-Jun-01 11:57N 28°07' W 015°24'0 0.0
2018-Jun-01 11:30N 28°07' W 015°24'0 0.0
2018-Jun-01 10:58N 28°07' W 015°24'0 0.0
2018-Jun-01 10:30N 28°07' W 015°24'0 0.0
2018-Jun-01 10:00N 28°07' W 015°24'0 0.0
2018-Jun-01 09:30N 28°07' W 015°24'0 0.9
2018-Jun-01 09:00N 28°07' W 015°24'1 2.4
2018-Jun-01 08:31N 28°07' W 015°23'0 0.9
2018-Jun-01 08:00N 28°08' W 015°22'2 3.8
2018-Jun-01 07:30N 28°09' W 015°21'5 9.5
2018-Jun-01 07:00N 28°13' W 015°17'611.6
2018-Jun-01 06:30N 28°17' W 015°13'612.2
2018-Jun-01 06:00N 28°21' W 015°08'612.1
2018-Jun-01 05:29N 28°26' W 015°03'712.1
2018-Jun-01 04:55N 28°31' W 014°58'  
2018-May-29 21:50N 35°56' W 005°55'1011.1
2018-May-29 20:55N 35°57' W 005°42'4 9.6
2018-May-29 20:27N 35°57' W 005°36'4 8.6
2018-May-29 20:00N 35°58' W 005°32'4 7.3
2018-May-29 19:30N 35°60' W 005°28'4 7.4
2018-May-29 19:00N 36°01' W 005°24'4 7.8
2018-May-29 18:31N 36°03' W 005°19'1 1.4
2018-May-29 17:51N 36°04' W 005°20'1 2.5
2018-May-29 17:31N 36°04' W 005°21'0 1.0
2018-May-29 17:01N 36°03' W 005°21'3 5.8
2018-May-29 16:29N 36°02' W 005°18'  
Track history (hours):
 
Tides and Currents Weather Stations Pressure Air Temp Water Temp Dewpoint Dewpoint Depression Visibility Wind Speed Wind Dir Waves Ship Positions

Tajima

Last reported at 2018-Jun-02 20:13 UTC. Time now 2018-Aug-14 13:46 UTC.
Position N 23°53' W 016°34'.
Warning: this ship's position is months out of date.

Length 333 m; beam 60 m.

Type: Cargo ship. MMSI: 351120000.

Date/timePositionNaut miles runAvg speedWind from/ knotsBaromVisibWave heightAir tempDewpointWater temp
2018-Jun-02 20:13N 23°53' W 016°34'211.9
2018-Jun-02 20:00N 23°55' W 016°33'24011.8
2018-Jun-01 23:38N 27°45' W 015°15'211.9
2018-Jun-01 23:29N 27°47' W 015°15'611.8
2018-Jun-01 23:00N 27°52' W 015°15'611.6
2018-Jun-01 22:30N 27°58' W 015°16'510.6
2018-Jun-01 22:00N 28°03' W 015°18'510.8
2018-Jun-01 21:30N 28°06' W 015°23'1 2.7
2018-Jun-01 21:01N 28°07' W 015°24'0 0.1
2018-Jun-01 20:31N 28°07' W 015°24'0 0.0
2018-Jun-01 20:01N 28°07' W 015°24'0 0.0
2018-Jun-01 19:22N 28°07' W 015°24'0 0.0
2018-Jun-01 18:51N 28°07' W 015°24'0 0.0
2018-Jun-01 18:21N 28°07' W 015°24'0 0.0
2018-Jun-01 17:52N 28°07' W 015°24'0 0.0
2018-Jun-01 17:25N 28°07' W 015°24'0 0.0
2018-Jun-01 16:52N 28°07' W 015°24'0 0.0
2018-Jun-01 16:25N 28°07' W 015°24'0 0.0
2018-Jun-01 15:55N 28°07' W 015°24'0 0.0
2018-Jun-01 15:22N 28°07' W 015°24'0 0.0
2018-Jun-01 14:58N 28°07' W 015°24'0 0.0
2018-Jun-01 14:28N 28°07' W 015°24'0 0.0
2018-Jun-01 13:58N 28°07' W 015°24'0 0.0
2018-Jun-01 13:28N 28°07' W 015°24'0 0.0
2018-Jun-01 12:58N 28°07' W 015°24'0 0.0
2018-Jun-01 12:27N 28°07' W 015°24'0 0.0
2018-Jun-01 11:57N 28°07' W 015°24'0 0.0
2018-Jun-01 11:30N 28°07' W 015°24'0 0.0
2018-Jun-01 10:58N 28°07' W 015°24'0 0.0
2018-Jun-01 10:30N 28°07' W 015°24'0 0.0
2018-Jun-01 10:00N 28°07' W 015°24'0 0.0
2018-Jun-01 09:30N 28°07' W 015°24'0 0.9
2018-Jun-01 09:00N 28°07' W 015°24'1 2.4
2018-Jun-01 08:31N 28°07' W 015°23'0 0.9
2018-Jun-01 08:00N 28°08' W 015°22'2 3.8
2018-Jun-01 07:30N 28°09' W 015°21'5 9.5
2018-Jun-01 07:00N 28°13' W 015°17'611.6
2018-Jun-01 06:30N 28°17' W 015°13'612.2
2018-Jun-01 06:00N 28°21' W 015°08'612.1
2018-Jun-01 05:29N 28°26' W 015°03'712.1
2018-Jun-01 04:55N 28°31' W 014°58'  
2018-May-29 21:50N 35°56' W 005°55'1011.1
2018-May-29 20:55N 35°57' W 005°42'4 9.6
2018-May-29 20:27N 35°57' W 005°36'4 8.6
2018-May-29 20:00N 35°58' W 005°32'4 7.3
2018-May-29 19:30N 35°60' W 005°28'4 7.4
2018-May-29 19:00N 36°01' W 005°24'4 7.8
2018-May-29 18:31N 36°03' W 005°19'1 1.4
2018-May-29 17:51N 36°04' W 005°20'1 2.5
2018-May-29 17:31N 36°04' W 005°21'0 1.0
2018-May-29 17:01N 36°03' W 005°21'3 5.8
2018-May-29 16:29N 36°02' W 005°18'  

Dump ship's entire track history